Lakeway, Texas
Current Conditions -  °F | °C
As of 1:35 PM on Thursday 23 Oct 2014 (Local Time) from KRYW Reporting Station
Overcast Overcast  
Wind Chill: 78°   Ceiling: 11000
Heat Index: 80°   Visibility: 10mi
Dew Point: 59°   Wind: 0mph
Humidity: 52%   Direction: NA
Pressure: 30.14"   Gusts: NA
Location:  30.3192°N, 98.0276°W
Report Text: KRYW 231835Z AUTO 00000KT 10SM SCT050 OVC110 26/15 A3014 RMK AO2 T02580152
Loading
Personal Weather Stations






























Interactive Weather Map
Tropical Storm Tracking
New forecast layout! Learn more

10-Day Weather Forecast

Advertisements
Track Severe Weather on mobile